createdAt,value
2017-08-31T00:00:52.701Z,43.00
2017-08-31T00:03:20.151Z,44.38
2017-08-31T00:05:47.627Z,44.60
2017-08-31T00:08:15.160Z,46.85
2017-08-31T00:10:42.613Z,47.42
2017-08-31T00:13:10.087Z,49.50
2017-08-31T00:15:37.544Z,50.97
2017-08-31T00:18:04.989Z,55.93
2017-08-31T00:20:32.418Z,54.58
2017-08-31T00:22:59.920Z,57.50
2017-08-31T00:25:27.462Z,59.97
2017-08-31T00:27:54.910Z,63.40
2017-08-31T00:30:22.355Z,66.62
2017-08-31T00:32:49.800Z,68.57
2017-08-31T00:35:17.280Z,73.37
2017-08-31T00:37:44.739Z,75.90
2017-08-31T00:40:12.267Z,79.93
2017-08-31T00:42:39.711Z,82.32
2017-08-31T00:45:07.167Z,83.25
2017-08-31T00:47:34.604Z,87.35
2017-08-31T00:50:02.034Z,89.53
2017-08-31T00:52:29.478Z,89.05
2017-08-31T00:54:57.022Z,88.80
2017-08-31T00:57:24.489Z,92.72
2017-08-31T00:59:51.950Z,96.12
2017-08-31T01:02:19.375Z,92.87
2017-08-31T01:04:46.822Z,103.75
2017-08-31T01:07:14.259Z,98.00
2017-08-31T01:09:41.718Z,98.12
2017-08-31T01:12:09.168Z,100.35
2017-08-31T01:14:36.662Z,117.40
2017-08-31T01:17:04.147Z,111.70
2017-08-31T01:19:31.676Z,115.10
2017-08-31T01:21:59.123Z,119.95
2017-08-31T01:24:26.570Z,119.75
2017-08-31T01:26:54.011Z,118.72
2017-08-31T01:29:21.456Z,120.03
2017-08-31T01:31:48.901Z,120.70
2017-08-31T01:34:16.415Z,118.33
2017-08-31T01:36:43.874Z,124.28
2017-08-31T01:39:11.541Z,117.72
2017-08-31T01:41:38.997Z,123.00
2017-08-31T01:44:06.452Z,124.50
2017-08-31T01:46:33.927Z,120.80
2017-08-31T01:49:01.355Z,123.70
2017-08-31T01:51:28.791Z,123.93
2017-08-31T01:53:56.281Z,126.95
2017-08-31T01:56:23.823Z,123.17
2017-08-31T01:58:51.282Z,126.85
2017-08-31T02:01:18.754Z,130.27
2017-08-31T02:03:46.192Z,132.18
2017-08-31T02:06:13.646Z,132.45
2017-08-31T02:08:41.178Z,137.88
2017-08-31T02:11:08.638Z,131.98
2017-08-31T02:13:36.074Z,119.47
2017-08-31T02:16:03.554Z,116.75
2017-08-31T02:18:31.090Z,121.55
2017-08-31T02:20:58.585Z,115.10
2017-08-31T02:23:26.131Z,113.30
2017-08-31T02:25:53.595Z,115.93
2017-08-31T02:28:21.130Z,123.13
2017-08-31T02:30:48.575Z,126.03
2017-08-31T02:33:16.029Z,130.85
2017-08-31T02:35:43.474Z,130.57
2017-08-31T02:38:10.927Z,137.68
2017-08-31T02:40:38.382Z,135.93
2017-08-31T02:43:05.822Z,132.05
2017-08-31T02:45:33.263Z,128.63
2017-08-31T02:48:00.797Z,138.80
2017-08-31T02:50:28.310Z,128.15
2017-08-31T02:52:56.507Z,126.80
2017-08-31T02:55:23.959Z,127.13
2017-08-31T02:57:51.402Z,124.93
2017-08-31T03:00:18.846Z,125.50
2017-08-31T03:02:46.410Z,120.43
2017-08-31T03:05:13.895Z,120.97
2017-08-31T03:07:41.351Z,112.93
2017-08-31T03:10:08.882Z,113.97
2017-08-31T03:12:37.075Z,111.90
2017-08-31T03:15:04.566Z,111.90
2017-08-31T03:17:32.107Z,109.32
2017-08-31T03:19:59.571Z,113.03
2017-08-31T03:22:27.079Z,111.15
2017-08-31T03:24:54.537Z,104.35
2017-08-31T03:27:22.158Z,98.97
2017-08-31T03:29:49.630Z,95.40
2017-08-31T03:32:17.076Z,98.37
2017-08-31T03:34:44.508Z,92.97
2017-08-31T03:37:11.942Z,92.80
2017-08-31T03:39:39.475Z,96.15
2017-08-31T03:42:07.007Z,93.47
2017-08-31T03:44:34.507Z,98.80
2017-08-31T03:47:01.976Z,96.15
2017-08-31T03:49:29.506Z,98.87
2017-08-31T03:51:56.940Z,94.75
2017-08-31T03:54:24.398Z,93.20
2017-08-31T03:56:51.855Z,96.93
2017-08-31T03:59:19.321Z,90.23
2017-08-31T04:01:47.533Z,92.75
2017-08-31T04:04:15.066Z,85.47
2017-08-31T04:06:42.509Z,82.72
2017-08-31T04:09:09.983Z,79.67
2017-08-31T04:11:37.436Z,79.97
2017-08-31T04:14:04.898Z,72.60
2017-08-31T04:16:32.335Z,69.30
2017-08-31T04:18:59.795Z,69.45
2017-08-31T04:21:27.270Z,71.03
2017-08-31T04:23:54.897Z,67.30
2017-08-31T04:26:22.379Z,67.82
2017-08-31T04:28:49.826Z,63.08
2017-08-31T04:31:17.278Z,65.57
2017-08-31T04:33:45.487Z,63.92
2017-08-31T04:36:12.964Z,60.47
2017-08-31T04:38:40.578Z,59.83
2017-08-31T04:41:08.018Z,58.20
2017-08-31T04:43:35.458Z,55.60
2017-08-31T04:46:02.899Z,54.93
2017-08-31T04:48:30.336Z,51.47
2017-08-31T04:50:57.850Z,49.22
2017-08-31T04:53:25.292Z,47.88
2017-08-31T04:55:52.760Z,45.95
2017-08-31T04:58:20.216Z,40.95
2017-08-31T05:00:47.658Z,38.47
2017-08-31T05:03:15.096Z,38.17
2017-08-31T05:05:42.561Z,36.80
2017-08-31T05:08:09.998Z,38.00
2017-08-31T05:10:37.443Z,36.65
2017-08-31T05:13:04.934Z,36.40
2017-08-31T05:15:32.379Z,36.58
2017-08-31T05:17:59.811Z,34.42
2017-08-31T05:20:27.271Z,34.78
2017-08-31T05:22:55.501Z,32.77
2017-08-31T05:25:22.947Z,33.35
2017-08-31T05:27:50.414Z,30.73
2017-08-31T05:30:17.877Z,31.65
2017-08-31T05:32:45.407Z,30.73
2017-08-31T05:35:12.836Z,28.67
2017-08-31T05:37:40.299Z,29.27
2017-08-31T05:40:07.729Z,27.67
2017-08-31T05:42:35.170Z,27.53
2017-08-31T05:45:02.631Z,27.67
2017-08-31T05:47:30.145Z,26.50
2017-08-31T05:49:57.584Z,24.08
2017-08-31T05:52:25.042Z,23.55
2017-08-31T05:54:52.470Z,23.08
2017-08-31T05:57:19.935Z,21.05
2017-08-31T05:59:47.370Z,19.42
2017-08-31T06:02:14.843Z,19.50
2017-08-31T06:04:42.279Z,19.27
2017-08-31T06:07:09.728Z,18.48
2017-08-31T06:09:37.196Z,18.17
2017-08-31T06:12:04.641Z,17.25
2017-08-31T06:14:32.191Z,18.30
2017-08-31T06:16:59.653Z,16.60
2017-08-31T06:19:27.301Z,15.27
2017-08-31T06:21:54.744Z,15.15
2017-08-31T06:24:22.191Z,14.00
2017-08-31T06:26:49.647Z,12.82
2017-08-31T06:29:17.206Z,13.05
2017-08-31T06:31:44.657Z,14.52
2017-08-31T06:34:12.089Z,12.30
2017-08-31T06:36:40.340Z,11.95
2017-08-31T06:39:07.831Z,11.65
2017-08-31T06:41:35.271Z,10.02
2017-08-31T06:44:02.694Z,10.30
2017-08-31T06:46:30.134Z,9.90
2017-08-31T06:48:57.572Z,9.20
2017-08-31T06:51:25.002Z,9.27
2017-08-31T06:53:52.538Z,11.07
2017-08-31T06:56:20.088Z,9.25
2017-08-31T06:58:47.536Z,9.60
2017-08-31T07:01:15.083Z,10.17
2017-08-31T07:03:42.554Z,9.27
2017-08-31T07:06:09.995Z,9.93
2017-08-31T07:08:37.434Z,10.13
2017-08-31T07:11:05.009Z,12.68
2017-08-31T07:13:32.466Z,12.15
2017-08-31T07:16:00.004Z,11.60
2017-08-31T07:18:27.440Z,12.95
2017-08-31T07:20:54.883Z,15.93
2017-08-31T07:23:23.110Z,14.98
2017-08-31T07:25:50.570Z,15.43
2017-08-31T07:28:18.006Z,14.57
2017-08-31T07:30:45.487Z,18.33
2017-08-31T07:33:13.016Z,15.85
2017-08-31T07:35:40.510Z,17.58
2017-08-31T07:38:08.054Z,15.93
2017-08-31T07:40:35.519Z,15.75
2017-08-31T07:43:02.963Z,13.62
2017-08-31T07:45:30.402Z,14.20
2017-08-31T07:47:57.902Z,12.10
2017-08-31T07:50:25.414Z,12.18
2017-08-31T07:52:52.847Z,10.57
2017-08-31T07:55:20.302Z,10.20
2017-08-31T07:57:47.839Z,9.47
2017-08-31T08:00:16.085Z,9.38
2017-08-31T08:02:43.555Z,9.50
2017-08-31T08:05:11.022Z,9.43
2017-08-31T08:07:38.578Z,10.20
2017-08-31T08:10:06.027Z,12.60
2017-08-31T08:12:33.567Z,13.32
2017-08-31T08:15:01.026Z,9.23
2017-08-31T08:17:28.463Z,9.50
2017-08-31T08:19:55.916Z,11.20
2017-08-31T08:22:23.425Z,9.20
2017-08-31T08:24:50.894Z,6.60
2017-08-31T08:27:18.326Z,6.30
2017-08-31T08:29:45.858Z,6.00
2017-08-31T08:32:13.400Z,6.40
2017-08-31T08:34:40.894Z,3.80
2017-08-31T08:37:08.338Z,3.80
2017-08-31T08:39:35.790Z,4.85
2017-08-31T08:42:03.233Z,3.58
2017-08-31T08:44:30.800Z,3.10
2017-08-31T08:46:58.398Z,2.80
2017-08-31T08:49:25.843Z,3.03
2017-08-31T08:51:53.285Z,2.83
2017-08-31T08:54:20.813Z,3.17
2017-08-31T08:56:48.371Z,2.33
2017-08-31T08:59:15.857Z,2.30
2017-08-31T09:01:43.304Z,3.83
2017-08-31T09:04:10.781Z,2.70
2017-08-31T09:06:38.218Z,3.50
2017-08-31T09:09:05.687Z,3.53
2017-08-31T09:11:33.215Z,3.67
2017-08-31T09:14:00.632Z,3.60
2017-08-31T09:16:28.153Z,3.00
2017-08-31T09:18:55.622Z,2.90
2017-08-31T09:21:23.170Z,3.92
2017-08-31T09:23:50.699Z,3.40
2017-08-31T09:26:18.380Z,6.65
2017-08-31T09:28:45.839Z,3.17
2017-08-31T09:31:13.314Z,3.40
2017-08-31T09:33:40.752Z,2.60
2017-08-31T09:36:08.346Z,2.50
2017-08-31T09:38:35.767Z,2.58
2017-08-31T09:41:03.236Z,3.40
2017-08-31T09:43:30.726Z,2.60
2017-08-31T09:45:58.179Z,2.60
2017-08-31T09:48:25.687Z,4.55
2017-08-31T09:50:53.113Z,3.62
2017-08-31T09:53:20.885Z,3.33
2017-08-31T09:55:48.343Z,3.00
2017-08-31T09:58:15.849Z,3.72
2017-08-31T10:00:43.295Z,2.50
2017-08-31T10:03:10.803Z,2.80
2017-08-31T10:05:38.272Z,3.05
2017-08-31T10:08:05.718Z,2.55
2017-08-31T10:10:33.227Z,3.70
2017-08-31T10:13:00.670Z,2.37
2017-08-31T10:15:28.099Z,2.80
2017-08-31T10:17:55.668Z,2.80
2017-08-31T10:20:23.103Z,3.50
2017-08-31T10:22:50.666Z,3.30
2017-08-31T10:25:18.113Z,2.90
2017-08-31T10:27:45.568Z,3.03
2017-08-31T10:30:13.035Z,3.03
2017-08-31T10:32:40.470Z,2.62
2017-08-31T10:35:07.899Z,2.40
2017-08-31T10:37:35.346Z,3.75
2017-08-31T10:40:02.779Z,2.40
2017-08-31T10:42:30.237Z,2.60
2017-08-31T10:44:57.671Z,3.00
2017-08-31T10:47:25.108Z,3.47
2017-08-31T10:49:52.666Z,3.25
2017-08-31T10:52:20.096Z,3.60
2017-08-31T10:54:47.542Z,3.45
2017-08-31T10:57:14.979Z,3.83
2017-08-31T10:59:42.433Z,3.80
2017-08-31T11:02:09.856Z,3.55
2017-08-31T11:04:37.401Z,3.90
2017-08-31T11:07:04.847Z,3.72
2017-08-31T11:09:32.303Z,4.37
2017-08-31T11:11:59.766Z,4.57
2017-08-31T11:14:27.223Z,5.28
2017-08-31T11:16:54.655Z,5.50
2017-08-31T11:19:22.107Z,5.87
2017-08-31T11:21:49.557Z,5.05
2017-08-31T11:24:17.051Z,5.07
2017-08-31T11:26:44.533Z,5.00
2017-08-31T11:29:12.122Z,4.85
2017-08-31T11:31:39.524Z,4.93
2017-08-31T11:34:07.028Z,4.40
2017-08-31T11:36:34.459Z,4.30
2017-08-31T11:39:01.847Z,4.40
2017-08-31T11:41:29.367Z,4.50
2017-08-31T11:43:56.807Z,4.72
2017-08-31T11:46:24.255Z,4.53
2017-08-31T11:48:51.717Z,5.17
2017-08-31T11:51:19.194Z,4.30
2017-08-31T11:53:46.638Z,5.03
2017-08-31T11:56:14.176Z,5.27
2017-08-31T11:58:41.618Z,5.15
2017-08-31T12:01:09.154Z,4.97
2017-08-31T12:03:36.712Z,5.10
2017-08-31T12:06:04.271Z,5.37
2017-08-31T12:08:31.710Z,5.85
2017-08-31T12:10:59.146Z,5.90
2017-08-31T12:13:26.632Z,5.60
2017-08-31T12:15:54.122Z,5.10
2017-08-31T12:18:21.585Z,6.13
2017-08-31T12:20:49.026Z,5.55
2017-08-31T12:23:16.474Z,5.30
2017-08-31T12:25:44.019Z,5.80
2017-08-31T12:28:11.448Z,4.87
2017-08-31T12:30:39.011Z,5.93
2017-08-31T12:33:06.463Z,6.10
2017-08-31T12:35:33.888Z,5.95
2017-08-31T12:38:01.426Z,6.43
2017-08-31T12:40:28.866Z,6.10
2017-08-31T12:42:56.315Z,5.35
2017-08-31T12:45:23.794Z,5.37
2017-08-31T12:47:51.235Z,5.78
2017-08-31T12:50:18.722Z,5.60
2017-08-31T12:52:46.165Z,5.28
2017-08-31T12:55:13.648Z,5.87
2017-08-31T12:57:41.180Z,6.10
2017-08-31T13:00:08.603Z,6.10
2017-08-31T13:02:36.066Z,7.00
2017-08-31T13:05:03.612Z,6.40
2017-08-31T13:07:31.042Z,6.32
2017-08-31T13:09:58.530Z,6.30
2017-08-31T13:12:25.954Z,6.90
2017-08-31T13:14:53.500Z,6.30
2017-08-31T13:17:20.935Z,6.35
2017-08-31T13:19:48.383Z,6.25
2017-08-31T13:22:15.911Z,7.00
2017-08-31T13:24:43.351Z,7.57
2017-08-31T13:27:10.811Z,6.62
2017-08-31T13:29:38.279Z,6.80
2017-08-31T13:32:05.714Z,5.93
2017-08-31T13:34:33.230Z,5.60
2017-08-31T13:37:00.786Z,5.22
2017-08-31T13:39:28.246Z,4.87
2017-08-31T13:41:55.710Z,4.60
2017-08-31T13:44:23.259Z,3.83
2017-08-31T13:46:50.699Z,4.50
2017-08-31T13:49:18.137Z,4.87
2017-08-31T13:51:45.597Z,5.10
2017-08-31T13:54:13.054Z,4.12
2017-08-31T13:56:40.494Z,4.93
2017-08-31T13:59:07.983Z,5.10
2017-08-31T14:01:35.423Z,6.10
2017-08-31T14:04:02.861Z,6.30
2017-08-31T14:06:30.323Z,6.18
2017-08-31T14:08:57.822Z,6.62
2017-08-31T14:11:25.279Z,5.87
2017-08-31T14:13:52.741Z,6.50
2017-08-31T14:16:20.195Z,6.07
2017-08-31T14:18:47.711Z,6.18
2017-08-31T14:21:15.290Z,5.30
2017-08-31T14:23:42.866Z,5.50
2017-08-31T14:26:10.411Z,5.00
2017-08-31T14:28:37.974Z,5.10
2017-08-31T14:31:05.426Z,5.85
2017-08-31T14:33:32.886Z,6.60
2017-08-31T14:36:00.353Z,7.22
2017-08-31T14:38:27.868Z,7.85
2017-08-31T14:40:55.307Z,6.43
2017-08-31T14:43:22.751Z,7.10
2017-08-31T14:45:50.198Z,5.50
2017-08-31T14:48:17.635Z,4.90
2017-08-31T14:50:45.159Z,4.80
2017-08-31T14:53:12.668Z,3.72
2017-08-31T14:55:40.151Z,3.73
2017-08-31T14:58:07.610Z,3.65
2017-08-31T15:00:35.211Z,3.90
2017-08-31T15:03:02.667Z,3.90
2017-08-31T15:05:30.103Z,3.20
2017-08-31T15:07:57.548Z,3.40
2017-08-31T15:10:25.000Z,3.40
2017-08-31T15:12:52.418Z,4.00
2017-08-31T15:15:19.964Z,3.75
2017-08-31T15:17:47.395Z,3.10
2017-08-31T15:20:15.042Z,3.12
2017-08-31T15:22:42.613Z,2.95
2017-08-31T15:25:10.113Z,2.95
2017-08-31T15:27:37.602Z,3.12
2017-08-31T15:30:05.022Z,2.85
2017-08-31T15:32:32.575Z,3.20
2017-08-31T15:35:00.104Z,3.50
2017-08-31T15:37:27.852Z,3.00
2017-08-31T15:39:55.328Z,3.20
2017-08-31T15:42:22.799Z,3.00
2017-08-31T15:44:50.267Z,3.08
2017-08-31T15:47:17.799Z,3.67
2017-08-31T15:49:45.436Z,2.92
2017-08-31T15:52:12.842Z,3.00
2017-08-31T15:54:40.300Z,2.20
2017-08-31T15:57:07.739Z,2.58
2017-08-31T15:59:35.175Z,1.90
2017-08-31T16:02:02.612Z,1.92
2017-08-31T16:04:30.103Z,1.70
2017-08-31T16:06:57.609Z,1.62
2017-08-31T16:09:25.104Z,1.30
2017-08-31T16:11:52.672Z,1.30
2017-08-31T16:14:20.310Z,0.90
2017-08-31T16:16:47.763Z,1.23
2017-08-31T16:19:15.220Z,1.30
2017-08-31T16:21:42.674Z,1.30
2017-08-31T16:24:10.293Z,1.20
2017-08-31T16:26:37.743Z,1.87
2017-08-31T16:29:05.174Z,1.80
2017-08-31T16:31:32.646Z,1.40
2017-08-31T16:34:00.106Z,1.58
2017-08-31T16:36:27.551Z,1.50
2017-08-31T16:38:54.982Z,1.87
2017-08-31T16:41:22.442Z,1.83
2017-08-31T16:43:49.885Z,1.70
2017-08-31T16:46:17.344Z,1.75
2017-08-31T16:48:44.771Z,2.13
2017-08-31T16:51:12.246Z,2.37
2017-08-31T16:53:39.723Z,2.20
2017-08-31T16:56:07.181Z,2.10
2017-08-31T16:58:34.897Z,2.03
2017-08-31T17:01:02.325Z,1.90
2017-08-31T17:03:29.836Z,2.08
2017-08-31T17:05:57.307Z,1.70
2017-08-31T17:08:24.732Z,2.00
2017-08-31T17:10:52.237Z,2.47
2017-08-31T17:13:19.736Z,1.95
2017-08-31T17:15:47.294Z,2.62
2017-08-31T17:18:14.765Z,1.73
2017-08-31T17:20:42.246Z,1.50
2017-08-31T17:23:09.765Z,1.85
2017-08-31T17:25:37.204Z,3.28
2017-08-31T17:28:04.747Z,1.62
2017-08-31T17:30:32.207Z,1.50
2017-08-31T17:32:59.812Z,2.28
2017-08-31T17:35:27.283Z,2.37
2017-08-31T17:37:54.781Z,2.10
2017-08-31T17:40:22.249Z,3.08
2017-08-31T17:42:50.430Z,2.15
2017-08-31T17:45:17.855Z,2.83
2017-08-31T17:47:45.451Z,1.85
2017-08-31T17:50:12.887Z,3.58
2017-08-31T17:52:40.335Z,2.28
2017-08-31T17:55:07.792Z,1.60
2017-08-31T17:57:35.231Z,3.30
2017-08-31T18:00:02.682Z,3.05
2017-08-31T18:02:30.191Z,3.20
2017-08-31T18:04:57.637Z,2.97
2017-08-31T18:07:25.079Z,3.90
2017-08-31T18:09:52.620Z,3.45
2017-08-31T18:12:20.095Z,3.03
2017-08-31T18:14:47.559Z,2.20
2017-08-31T18:17:15.132Z,4.12
2017-08-31T18:19:43.351Z,3.13
2017-08-31T18:22:10.840Z,2.40
2017-08-31T18:24:38.338Z,4.03
2017-08-31T18:27:05.779Z,4.65
2017-08-31T18:29:33.225Z,4.90
2017-08-31T18:32:00.675Z,2.63
2017-08-31T18:34:28.174Z,3.72
2017-08-31T18:36:55.607Z,2.70
2017-08-31T18:39:23.041Z,4.33
2017-08-31T18:41:50.491Z,3.03
2017-08-31T18:44:17.930Z,5.50
2017-08-31T18:46:45.534Z,3.83
2017-08-31T18:49:12.971Z,4.30
2017-08-31T18:51:40.531Z,3.28
2017-08-31T18:54:08.015Z,3.25
2017-08-31T18:56:35.444Z,3.25
2017-08-31T18:59:03.753Z,3.55
2017-08-31T19:01:31.378Z,2.40
2017-08-31T19:03:58.866Z,2.50
2017-08-31T19:06:26.293Z,3.08
2017-08-31T19:08:53.748Z,4.95
2017-08-31T19:11:21.170Z,4.90
2017-08-31T19:13:49.580Z,3.12
2017-08-31T19:16:17.022Z,3.63
2017-08-31T19:18:44.474Z,3.72
2017-08-31T19:21:12.114Z,2.97
2017-08-31T19:23:39.654Z,4.22
2017-08-31T19:26:07.294Z,2.60
2017-08-31T19:28:34.729Z,3.30
2017-08-31T19:31:02.208Z,4.87
2017-08-31T19:33:29.662Z,4.70
2017-08-31T19:35:57.141Z,3.20
2017-08-31T19:38:24.673Z,4.93
2017-08-31T19:40:52.142Z,4.32
2017-08-31T19:43:19.583Z,5.65
2017-08-31T19:45:47.023Z,4.25
2017-08-31T19:48:14.569Z,2.72
2017-08-31T19:50:42.090Z,5.15
2017-08-31T19:53:09.661Z,4.68
2017-08-31T19:55:37.332Z,3.85
2017-08-31T19:58:04.828Z,5.50
2017-08-31T20:00:32.251Z,5.53
2017-08-31T20:02:59.688Z,5.43
2017-08-31T20:05:27.294Z,4.65
2017-08-31T20:07:54.799Z,3.97
2017-08-31T20:10:22.270Z,4.07
2017-08-31T20:12:49.805Z,6.80
2017-08-31T20:15:17.368Z,6.60
2017-08-31T20:17:44.902Z,5.87
2017-08-31T20:20:12.351Z,3.90
2017-08-31T20:22:39.790Z,5.45
2017-08-31T20:25:07.347Z,4.20
2017-08-31T20:27:34.779Z,5.22
2017-08-31T20:30:02.283Z,4.40
2017-08-31T20:32:29.731Z,5.28
2017-08-31T20:34:57.275Z,6.53
2017-08-31T20:37:24.834Z,7.03
2017-08-31T20:39:52.253Z,6.40
2017-08-31T20:42:19.694Z,8.25
2017-08-31T20:44:47.171Z,6.03
2017-08-31T20:47:14.607Z,7.10
2017-08-31T20:49:42.035Z,7.18
2017-08-31T20:52:09.537Z,8.95
2017-08-31T20:54:37.778Z,6.65
2017-08-31T20:57:05.243Z,6.00
2017-08-31T20:59:32.666Z,5.68
2017-08-31T21:02:00.166Z,7.15
2017-08-31T21:04:27.634Z,4.57
2017-08-31T21:06:55.867Z,6.40
2017-08-31T21:09:24.363Z,4.57
2017-08-31T21:11:51.919Z,7.03
2017-08-31T21:14:19.366Z,4.18
2017-08-31T21:16:46.817Z,5.43
2017-08-31T21:19:14.270Z,5.73
2017-08-31T21:21:41.698Z,6.37
2017-08-31T21:24:09.203Z,8.32
2017-08-31T21:26:36.753Z,5.65
2017-08-31T21:29:04.196Z,4.60
2017-08-31T21:31:31.638Z,7.25
2017-08-31T21:33:59.074Z,5.45
2017-08-31T21:36:26.520Z,4.57
2017-08-31T21:38:53.957Z,6.40
2017-08-31T21:41:21.444Z,5.00
2017-08-31T21:43:48.898Z,5.07
2017-08-31T21:46:16.332Z,5.62
2017-08-31T21:48:43.805Z,9.32
2017-08-31T21:51:11.254Z,6.32
2017-08-31T21:53:38.775Z,7.20
2017-08-31T21:56:06.186Z,4.70
2017-08-31T21:58:33.658Z,5.68
2017-08-31T22:01:01.133Z,5.65
2017-08-31T22:03:28.614Z,7.93
2017-08-31T22:05:56.147Z,5.82
2017-08-31T22:08:23.616Z,6.05
2017-08-31T22:10:51.044Z,7.28
2017-08-31T22:13:18.483Z,5.35
2017-08-31T22:15:45.919Z,4.45
2017-08-31T22:18:14.170Z,7.27
2017-08-31T22:20:41.618Z,6.30
2017-08-31T22:23:09.066Z,4.95
2017-08-31T22:25:36.552Z,7.27
2017-08-31T22:28:04.090Z,4.78
2017-08-31T22:30:31.507Z,5.95
2017-08-31T22:32:58.954Z,8.10
2017-08-31T22:35:26.379Z,5.40
2017-08-31T22:37:53.990Z,5.57
2017-08-31T22:40:21.577Z,5.28
2017-08-31T22:42:49.043Z,6.70
2017-08-31T22:45:16.603Z,5.83
2017-08-31T22:47:44.157Z,4.82
2017-08-31T22:50:11.747Z,5.05
2017-08-31T22:52:39.946Z,5.90
2017-08-31T22:55:18.330Z,4.87
2017-08-31T22:57:57.715Z,5.75
2017-08-31T23:00:25.186Z,4.90
2017-08-31T23:02:52.617Z,5.63
2017-08-31T23:05:20.169Z,6.15
2017-08-31T23:07:47.594Z,6.30
2017-08-31T23:10:15.107Z,6.22
2017-08-31T23:12:42.535Z,6.23
2017-08-31T23:15:09.983Z,6.05
2017-08-31T23:20:11.440Z,7.00
2017-08-31T23:22:38.958Z,7.05
2017-08-31T23:25:07.190Z,5.70
2017-08-31T23:27:34.611Z,5.25
2017-08-31T23:30:02.044Z,5.20
2017-08-31T23:32:29.664Z,5.72
2017-08-31T23:34:57.161Z,5.53
2017-08-31T23:37:24.622Z,4.97
2017-08-31T23:39:52.063Z,6.18
2017-08-31T23:42:19.522Z,5.50
2017-08-31T23:44:47.003Z,5.10
2017-08-31T23:47:14.537Z,6.68
2017-08-31T23:49:42.124Z,5.90
2017-08-31T23:52:09.558Z,6.90
2017-08-31T23:54:37.099Z,6.82
2017-08-31T23:57:04.552Z,4.75
2017-08-31T23:59:31.979Z,4.85
